sensor_id;sensor_type;location;lat;lon;timestamp;pressure;altitude;pressure_sealevel;temperature;humidity
25526;BME280;13424;48.424;11.258;2023-02-18T00:01:22;96429.50;;;12.84;79.17
25526;BME280;13424;48.424;11.258;2023-02-18T00:03:49;96435.31;;;13.04;78.79
25526;BME280;13424;48.424;11.258;2023-02-18T00:06:29;96428.22;;;12.98;79.00
25526;BME280;13424;48.424;11.258;2023-02-18T00:08:56;96423.66;;;12.87;79.17
25526;BME280;13424;48.424;11.258;2023-02-18T00:11:24;96420.75;;;13.00;78.60
25526;BME280;13424;48.424;11.258;2023-02-18T00:13:52;96423.44;;;13.24;78.17
25526;BME280;13424;48.424;11.258;2023-02-18T00:16:19;96433.44;;;13.17;78.45
25526;BME280;13424;48.424;11.258;2023-02-18T00:18:45;96429.97;;;13.04;77.97
25526;BME280;13424;48.424;11.258;2023-02-18T00:21:10;96428.22;;;12.98;78.61
25526;BME280;13424;48.424;11.258;2023-02-18T00:23:36;96426.25;;;13.05;78.79
25526;BME280;13424;48.424;11.258;2023-02-18T00:26:09;96438.69;;;13.11;78.12
25526;BME280;13424;48.424;11.258;2023-02-18T00:28:38;96435.53;;;13.03;78.43
25526;BME280;13424;48.424;11.258;2023-02-18T00:31:14;96434.28;;;13.05;78.11
25526;BME280;13424;48.424;11.258;2023-02-18T00:33:40;96423.78;;;13.04;78.28
25526;BME280;13424;48.424;11.258;2023-02-18T00:36:10;96431.31;;;13.19;77.62
25526;BME280;13424;48.424;11.258;2023-02-18T00:38:37;96420.41;;;13.08;77.58
25526;BME280;13424;48.424;11.258;2023-02-18T00:41:03;96440.31;;;13.12;77.30
25526;BME280;13424;48.424;11.258;2023-02-18T00:43:32;96431.81;;;13.16;76.78
25526;BME280;13424;48.424;11.258;2023-02-18T00:45:58;96426.91;;;13.36;76.49
25526;BME280;13424;48.424;11.258;2023-02-18T00:48:24;96412.97;;;13.51;76.00
25526;BME280;13424;48.424;11.258;2023-02-18T00:50:50;96407.13;;;13.13;76.87
25526;BME280;13424;48.424;11.258;2023-02-18T00:53:16;96395.59;;;13.13;76.53
25526;BME280;13424;48.424;11.258;2023-02-18T00:55:43;96409.56;;;13.27;76.30
25526;BME280;13424;48.424;11.258;2023-02-18T00:58:10;96419.75;;;13.53;75.69
25526;BME280;13424;48.424;11.258;2023-02-18T01:00:36;96418.25;;;13.74;74.76
25526;BME280;13424;48.424;11.258;2023-02-18T01:03:12;96415.25;;;13.19;76.09
25526;BME280;13424;48.424;11.258;2023-02-18T01:05:39;96405.72;;;13.11;75.79
25526;BME280;13424;48.424;11.258;2023-02-18T01:08:07;96407.88;;;13.49;75.33
25526;BME280;13424;48.424;11.258;2023-02-18T01:10:36;96400.56;;;13.45;75.09
25526;BME280;13424;48.424;11.258;2023-02-18T01:13:03;96406.44;;;13.58;74.80
25526;BME280;13424;48.424;11.258;2023-02-18T01:15:30;96391.78;;;13.49;75.14
25526;BME280;13424;48.424;11.258;2023-02-18T01:18:02;96400.56;;;13.33;75.18
25526;BME280;13424;48.424;11.258;2023-02-18T01:20:28;96401.94;;;13.47;74.91
25526;BME280;13424;48.424;11.258;2023-02-18T01:22:54;96393.25;;;13.28;75.54
25526;BME280;13424;48.424;11.258;2023-02-18T01:25:20;96391.72;;;13.44;75.14
25526;BME280;13424;48.424;11.258;2023-02-18T01:31:21;96395.81;;;13.63;74.57
25526;BME280;13424;48.424;11.258;2023-02-18T01:33:59;96394.69;;;13.59;74.94
25526;BME280;13424;48.424;11.258;2023-02-18T01:36:28;96387.22;;;13.61;74.91
25526;BME280;13424;48.424;11.258;2023-02-18T01:38:55;96403.47;;;13.72;74.27
25526;BME280;13424;48.424;11.258;2023-02-18T01:41:22;96391.22;;;13.76;74.22
25526;BME280;13424;48.424;11.258;2023-02-18T01:43:47;96392.50;;;13.73;74.02
25526;BME280;13424;48.424;11.258;2023-02-18T01:46:18;96395.81;;;13.63;74.61
25526;BME280;13424;48.424;11.258;2023-02-18T01:48:49;96390.47;;;13.63;74.26
25526;BME280;13424;48.424;11.258;2023-02-18T01:51:32;96382.13;;;13.48;75.15
25526;BME280;13424;48.424;11.258;2023-02-18T01:54:29;96373.50;;;13.46;75.40
25526;BME280;13424;48.424;11.258;2023-02-18T01:57:11;96376.09;;;13.41;75.74
25526;BME280;13424;48.424;11.258;2023-02-18T01:59:47;96368.22;;;13.11;77.05
25526;BME280;13424;48.424;11.258;2023-02-18T02:02:17;96362.78;;;13.46;76.00
25526;BME280;13424;48.424;11.258;2023-02-18T02:04:44;96365.59;;;13.51;75.78
25526;BME280;13424;48.424;11.258;2023-02-18T02:07:10;96363.78;;;13.17;77.04
25526;BME280;13424;48.424;11.258;2023-02-18T02:09:37;96354.94;;;13.16;77.16
25526;BME280;13424;48.424;11.258;2023-02-18T02:15:37;96361.75;;;13.47;76.17
25526;BME280;13424;48.424;11.258;2023-02-18T02:18:47;96356.56;;;13.29;76.78
25526;BME280;13424;48.424;11.258;2023-02-18T02:33:23;96369.38;;;13.27;76.42
25526;BME280;13424;48.424;11.258;2023-02-18T02:36:22;96372.16;;;13.32;76.07
25526;BME280;13424;48.424;11.258;2023-02-18T02:39:16;96362.38;;;13.26;77.01
25526;BME280;13424;48.424;11.258;2023-02-18T02:42:18;96356.75;;;13.39;75.80
25526;BME280;13424;48.424;11.258;2023-02-18T02:45:31;96353.22;;;13.50;75.79
25526;BME280;13424;48.424;11.258;2023-02-18T02:48:37;96353.69;;;13.47;75.65
25526;BME280;13424;48.424;11.258;2023-02-18T02:53:50;96336.69;;;13.13;76.81
25526;BME280;13424;48.424;11.258;2023-02-18T02:56:23;96322.13;;;13.21;76.70
25526;BME280;13424;48.424;11.258;2023-02-18T02:59:00;96322.56;;;13.29;76.26
25526;BME280;13424;48.424;11.258;2023-02-18T03:01:55;96322.03;;;13.04;76.94
25526;BME280;13424;48.424;11.258;2023-02-18T03:10:51;96332.22;;;13.19;76.24
25526;BME280;13424;48.424;11.258;2023-02-18T03:14:27;96315.50;;;13.11;76.51
25526;BME280;13424;48.424;11.258;2023-02-18T03:17:02;96330.63;;;13.06;76.41
25526;BME280;13424;48.424;11.258;2023-02-18T03:19:44;96330.25;;;13.26;76.07
25526;BME280;13424;48.424;11.258;2023-02-18T03:22:30;96316.00;;;12.97;76.36
25526;BME280;13424;48.424;11.258;2023-02-18T03:24:58;96320.75;;;13.06;76.06
25526;BME280;13424;48.424;11.258;2023-02-18T03:27:36;96322.03;;;13.04;76.17
25526;BME280;13424;48.424;11.258;2023-02-18T03:33:12;96313.06;;;12.98;75.47
25526;BME280;13424;48.424;11.258;2023-02-18T03:35:38;96315.78;;;13.27;75.15
25526;BME280;13424;48.424;11.258;2023-02-18T03:38:19;96318.81;;;13.30;75.04
25526;BME280;13424;48.424;11.258;2023-02-18T03:40:46;96322.13;;;13.21;75.16
25526;BME280;13424;48.424;11.258;2023-02-18T03:43:12;96316.06;;;13.02;75.83
25526;BME280;13424;48.424;11.258;2023-02-18T03:45:38;96310.03;;;13.06;75.58
25526;BME280;13424;48.424;11.258;2023-02-18T03:48:05;96304.47;;;12.96;75.80
25526;BME280;13424;48.424;11.258;2023-02-18T03:50:31;96309.34;;;12.99;75.37
25526;BME280;13424;48.424;11.258;2023-02-18T03:53:15;96299.50;;;13.17;74.81
25526;BME280;13424;48.424;11.258;2023-02-18T03:55:42;96314.16;;;13.26;74.36
25526;BME280;13424;48.424;11.258;2023-02-18T03:58:08;96313.06;;;12.98;74.82
25526;BME280;13424;48.424;11.258;2023-02-18T04:00:34;96308.53;;;12.99;74.43
25526;BME280;13424;48.424;11.258;2023-02-18T04:02:59;96314.88;;;12.81;75.20
25526;BME280;13424;48.424;11.258;2023-02-18T04:05:25;96312.69;;;12.54;75.80
25526;BME280;13424;48.424;11.258;2023-02-18T04:07:51;96305.63;;;13.00;74.45
25526;BME280;13424;48.424;11.258;2023-02-18T04:10:17;96309.72;;;12.91;74.71
25526;BME280;13424;48.424;11.258;2023-02-18T04:12:44;96314.63;;;12.82;75.41
25526;BME280;13424;48.424;11.258;2023-02-18T04:15:10;96312.06;;;12.88;74.65
25526;BME280;13424;48.424;11.258;2023-02-18T04:17:36;96328.19;;;13.04;74.73
25526;BME280;13424;48.424;11.258;2023-02-18T04:20:02;96321.00;;;12.93;75.32
25526;BME280;13424;48.424;11.258;2023-02-18T04:22:34;96318.75;;;13.02;75.19
25526;BME280;13424;48.424;11.258;2023-02-18T04:25:00;96324.94;;;13.02;75.29
25526;BME280;13424;48.424;11.258;2023-02-18T04:28:10;96316.06;;;13.13;75.02
25526;BME280;13424;48.424;11.258;2023-02-18T04:30:38;96326.59;;;12.92;75.55
25526;BME280;13424;48.424;11.258;2023-02-18T04:33:05;96324.03;;;12.97;76.24
25526;BME280;13424;48.424;11.258;2023-02-18T04:35:31;96326.72;;;12.85;76.32
25526;BME280;13424;48.424;11.258;2023-02-18T04:37:57;96326.34;;;12.93;75.74
25526;BME280;13424;48.424;11.258;2023-02-18T04:40:23;96329.63;;;12.83;76.05
25526;BME280;13424;48.424;11.258;2023-02-18T04:42:58;96323.91;;;13.03;75.27
25526;BME280;13424;48.424;11.258;2023-02-18T04:45:25;96329.16;;;12.86;75.44
25526;BME280;13424;48.424;11.258;2023-02-18T04:47:51;96327.53;;;12.97;75.13
25526;BME280;13424;48.424;11.258;2023-02-18T04:50:17;96323.66;;;13.05;75.24
25526;BME280;13424;48.424;11.258;2023-02-18T04:52:42;96305.41;;;12.90;75.26
25526;BME280;13424;48.424;11.258;2023-02-18T04:55:08;96314.13;;;12.97;75.60
25526;BME280;13424;48.424;11.258;2023-02-18T04:57:34;96314.41;;;12.72;75.73
25526;BME280;13424;48.424;11.258;2023-02-18T05:00:00;96329.97;;;12.99;75.20
25526;BME280;13424;48.424;11.258;2023-02-18T05:02:26;96319.28;;;12.64;76.27
25526;BME280;13424;48.424;11.258;2023-02-18T05:04:53;96328.72;;;12.78;76.60
25526;BME280;13424;48.424;11.258;2023-02-18T05:07:19;96326.16;;;12.83;76.25
25526;BME280;13424;48.424;11.258;2023-02-18T05:09:45;96315.63;;;12.93;76.14
25526;BME280;13424;48.424;11.258;2023-02-18T05:12:11;96319.91;;;12.66;77.41
25526;BME280;13424;48.424;11.258;2023-02-18T05:14:37;96321.53;;;12.67;77.08
25526;BME280;13424;48.424;11.258;2023-02-18T05:17:02;96316.72;;;12.80;76.78
25526;BME280;13424;48.424;11.258;2023-02-18T05:19:28;96316.78;;;12.57;77.28
25526;BME280;13424;48.424;11.258;2023-02-18T05:21:54;96312.91;;;12.65;77.12
25526;BME280;13424;48.424;11.258;2023-02-18T05:24:20;96306.50;;;12.54;77.29
25526;BME280;13424;48.424;11.258;2023-02-18T05:26:46;96305.09;;;12.75;76.69
25526;BME280;13424;48.424;11.258;2023-02-18T05:29:12;96296.38;;;12.68;76.69
25526;BME280;13424;48.424;11.258;2023-02-18T05:31:38;96301.53;;;12.57;77.14
25526;BME280;13424;48.424;11.258;2023-02-18T05:34:12;96293.59;;;12.39;77.73
25526;BME280;13424;48.424;11.258;2023-02-18T05:36:38;96296.88;;;12.65;76.96
25526;BME280;13424;48.424;11.258;2023-02-18T05:39:04;96293.47;;;12.69;76.65
25526;BME280;13424;48.424;11.258;2023-02-18T05:41:30;96287.78;;;12.66;76.62
25526;BME280;13424;48.424;11.258;2023-02-18T05:43:56;96298.94;;;12.63;76.68
25526;BME280;13424;48.424;11.258;2023-02-18T05:46:40;96297.44;;;12.67;76.27
25526;BME280;13424;48.424;11.258;2023-02-18T05:49:07;96297.34;;;12.38;77.18
25526;BME280;13424;48.424;11.258;2023-02-18T05:51:32;96307.78;;;12.63;76.61
25526;BME280;13424;48.424;11.258;2023-02-18T05:53:59;96310.25;;;12.65;76.46
25526;BME280;13424;48.424;11.258;2023-02-18T05:56:25;96303.16;;;12.58;76.83
25526;BME280;13424;48.424;11.258;2023-02-18T05:58:50;96297.63;;;12.89;76.01
25526;BME280;13424;48.424;11.258;2023-02-18T06:01:17;96303.97;;;12.36;77.25
25526;BME280;13424;48.424;11.258;2023-02-18T06:03:43;96298.00;;;12.69;76.19
25526;BME280;13424;48.424;11.258;2023-02-18T06:06:18;96311.25;;;12.64;75.97
25526;BME280;13424;48.424;11.258;2023-02-18T06:08:44;96308.28;;;12.48;76.53
25526;BME280;13424;48.424;11.258;2023-02-18T06:11:10;96314.78;;;12.52;76.29
25526;BME280;13424;48.424;11.258;2023-02-18T06:13:36;96319.53;;;12.62;75.82
25526;BME280;13424;48.424;11.258;2023-02-18T06:16:01;96312.34;;;12.39;76.10
25526;BME280;13424;48.424;11.258;2023-02-18T06:18:28;96317.09;;;12.61;75.74
25526;BME280;13424;48.424;11.258;2023-02-18T06:20:55;96315.72;;;12.46;75.98
25526;BME280;13424;48.424;11.258;2023-02-18T06:23:22;96311.06;;;12.42;76.38
25526;BME280;13424;48.424;11.258;2023-02-18T06:25:48;96304.28;;;12.63;75.73
25526;BME280;13424;48.424;11.258;2023-02-18T06:28:16;96316.66;;;12.40;76.81
25526;BME280;13424;48.424;11.258;2023-02-18T06:30:43;96314.91;;;12.57;76.25
25526;BME280;13424;48.424;11.258;2023-02-18T06:33:09;96305.50;;;12.43;76.57
25526;BME280;13424;48.424;11.258;2023-02-18T06:35:35;96303.88;;;12.42;76.56
25526;BME280;13424;48.424;11.258;2023-02-18T06:38:01;96312.81;;;12.36;77.05
25526;BME280;13424;48.424;11.258;2023-02-18T06:40:27;96313.81;;;12.70;75.89
25526;BME280;13424;48.424;11.258;2023-02-18T06:42:53;96309.88;;;12.73;75.58
25526;BME280;13424;48.424;11.258;2023-02-18T06:45:28;96317.78;;;12.68;75.43
25526;BME280;13424;48.424;11.258;2023-02-18T06:47:53;96327.59;;;12.50;76.98
25526;BME280;13424;48.424;11.258;2023-02-18T06:50:20;96328.28;;;12.57;76.81
25526;BME280;13424;48.424;11.258;2023-02-18T06:52:46;96334.19;;;12.71;76.25
25526;BME280;13424;48.424;11.258;2023-02-18T06:55:12;96333.59;;;12.69;76.38
25526;BME280;13424;48.424;11.258;2023-02-18T06:57:38;96338.50;;;12.61;76.87
25526;BME280;13424;48.424;11.258;2023-02-18T07:00:07;96321.16;;;12.63;77.04
25526;BME280;13424;48.424;11.258;2023-02-18T07:02:33;96330.13;;;12.69;77.04
25526;BME280;13424;48.424;11.258;2023-02-18T07:04:59;96328.50;;;12.68;76.98
25526;BME280;13424;48.424;11.258;2023-02-18T07:07:25;96334.66;;;12.80;76.73
25526;BME280;13424;48.424;11.258;2023-02-18T07:09:51;96336.31;;;12.57;77.42
25526;BME280;13424;48.424;11.258;2023-02-18T07:12:16;96342.00;;;12.73;77.10
25526;BME280;13424;48.424;11.258;2023-02-18T07:14:42;96343.22;;;12.94;76.46
25526;BME280;13424;48.424;11.258;2023-02-18T07:17:08;96337.09;;;12.70;76.72
25526;BME280;13424;48.424;11.258;2023-02-18T07:19:34;96343.34;;;12.87;76.47
25526;BME280;13424;48.424;11.258;2023-02-18T07:21:59;96345.56;;;12.78;76.80
25526;BME280;13424;48.424;11.258;2023-02-18T07:24:26;96352.06;;;13.06;76.36
25526;BME280;13424;48.424;11.258;2023-02-18T07:26:51;96341.97;;;12.96;75.97
25526;BME280;13424;48.424;11.258;2023-02-18T07:29:17;96333.97;;;12.73;76.15
25526;BME280;13424;48.424;11.258;2023-02-18T07:31:43;96330.22;;;12.85;76.18
25526;BME280;13424;48.424;11.258;2023-02-18T07:34:09;96332.91;;;12.74;76.26
25526;BME280;13424;48.424;11.258;2023-02-18T07:36:35;96327.59;;;13.02;75.54
25526;BME280;13424;48.424;11.258;2023-02-18T07:39:01;96332.78;;;12.80;75.95
25526;BME280;13424;48.424;11.258;2023-02-18T07:41:26;96325.84;;;13.08;74.86
25526;BME280;13424;48.424;11.258;2023-02-18T07:43:52;96313.66;;;13.00;75.63
25526;BME280;13424;48.424;11.258;2023-02-18T07:46:18;96300.13;;;13.07;75.03
25526;BME280;13424;48.424;11.258;2023-02-18T07:48:44;96301.63;;;13.14;74.87
25526;BME280;13424;48.424;11.258;2023-02-18T07:51:11;96303.41;;;12.97;74.83
25526;BME280;13424;48.424;11.258;2023-02-18T07:53:38;96299.94;;;12.97;74.99
25526;BME280;13424;48.424;11.258;2023-02-18T07:56:04;96299.13;;;12.96;74.98
25526;BME280;13424;48.424;11.258;2023-02-18T07:58:34;96290.16;;;12.91;75.22
25526;BME280;13424;48.424;11.258;2023-02-18T08:01:09;96293.00;;;13.12;74.57
25526;BME280;13424;48.424;11.258;2023-02-18T08:03:36;96295.19;;;13.16;74.69
25526;BME280;13424;48.424;11.258;2023-02-18T08:06:03;96295.75;;;13.18;74.12
25526;BME280;13424;48.424;11.258;2023-02-18T08:08:31;96305.50;;;12.95;74.88
25526;BME280;13424;48.424;11.258;2023-02-18T08:11:00;96295.91;;;13.23;74.40
25526;BME280;13424;48.424;11.258;2023-02-18T08:13:31;96302.56;;;13.08;74.88
25526;BME280;13424;48.424;11.258;2023-02-18T08:16:31;96302.47;;;13.44;73.73
25526;BME280;13424;48.424;11.258;2023-02-18T08:18:57;96285.53;;;13.14;74.71
25526;BME280;13424;48.424;11.258;2023-02-18T08:21:24;96293.09;;;13.29;74.57
25526;BME280;13424;48.424;11.258;2023-02-18T08:23:51;96279.94;;;13.28;74.53
25526;BME280;13424;48.424;11.258;2023-02-18T08:26:17;96289.66;;;13.34;74.12
25526;BME280;13424;48.424;11.258;2023-02-18T08:29:04;96289.25;;;13.54;73.54
25526;BME280;13424;48.424;11.258;2023-02-18T08:31:30;96293.09;;;13.29;73.99
25526;BME280;13424;48.424;11.258;2023-02-18T08:33:57;96283.06;;;13.53;73.26
25526;BME280;13424;48.424;11.258;2023-02-18T08:36:23;96293.56;;;13.72;72.89
25526;BME280;13424;48.424;11.258;2023-02-18T08:38:53;96285.19;;;13.51;73.24
25526;BME280;13424;48.424;11.258;2023-02-18T08:41:19;96275.28;;;13.68;72.47
25526;BME280;13424;48.424;11.258;2023-02-18T08:43:45;96272.03;;;13.66;72.55
25526;BME280;13424;48.424;11.258;2023-02-18T08:46:12;96260.19;;;13.79;71.93
25526;BME280;13424;48.424;11.258;2023-02-18T08:48:38;96278.22;;;14.17;71.57
25526;BME280;13424;48.424;11.258;2023-02-18T08:51:18;96265.31;;;14.14;71.34
25526;BME280;13424;48.424;11.258;2023-02-18T08:53:45;96267.81;;;14.04;71.10
25526;BME280;13424;48.424;11.258;2023-02-18T08:56:12;96250.53;;;14.34;69.91
25526;BME280;13424;48.424;11.258;2023-02-18T08:58:40;96260.41;;;14.11;71.11
25526;BME280;13424;48.424;11.258;2023-02-18T09:01:12;96243.72;;;14.26;70.31
25526;BME280;13424;48.424;11.258;2023-02-18T09:03:38;96249.84;;;13.88;71.16
25526;BME280;13424;48.424;11.258;2023-02-18T09:06:05;96253.53;;;13.99;70.58
25526;BME280;13424;48.424;11.258;2023-02-18T09:08:31;96250.81;;;13.82;70.72
25526;BME280;13424;48.424;11.258;2023-02-18T09:10:59;96268.16;;;13.91;71.22
25526;BME280;13424;48.424;11.258;2023-02-18T09:13:25;96262.38;;;13.99;70.33
25526;BME280;13424;48.424;11.258;2023-02-18T09:16:14;96269.63;;;13.99;70.86
25526;BME280;13424;48.424;11.258;2023-02-18T09:18:40;96258.41;;;14.02;70.50
25526;BME280;13424;48.424;11.258;2023-02-18T09:21:08;96260.97;;;14.13;70.22
25526;BME280;13424;48.424;11.258;2023-02-18T09:23:34;96254.34;;;13.99;70.75
25526;BME280;13424;48.424;11.258;2023-02-18T09:26:04;96236.69;;;14.03;69.52
25526;BME280;13424;48.424;11.258;2023-02-18T09:28:31;96248.81;;;13.89;70.41
25526;BME280;13424;48.424;11.258;2023-02-18T09:31:13;96247.13;;;14.21;70.42
25526;BME280;13424;48.424;11.258;2023-02-18T09:33:46;96249.03;;;14.60;69.37
25526;BME280;13424;48.424;11.258;2023-02-18T09:36:12;96237.50;;;14.42;69.06
25526;BME280;13424;48.424;11.258;2023-02-18T09:38:38;96243.13;;;14.79;67.96
25526;BME280;13424;48.424;11.258;2023-02-18T09:41:15;96226.81;;;14.64;68.70
25526;BME280;13424;48.424;11.258;2023-02-18T09:43:47;96225.25;;;14.68;68.44
25526;BME280;13424;48.424;11.258;2023-02-18T09:46:22;96226.19;;;14.79;67.77
25526;BME280;13424;48.424;11.258;2023-02-18T09:48:48;96217.22;;;14.46;68.53
25526;BME280;13424;48.424;11.258;2023-02-18T09:51:15;96225.06;;;14.53;68.09
25526;BME280;13424;48.424;11.258;2023-02-18T09:53:43;96216.72;;;14.33;68.73
25526;BME280;13424;48.424;11.258;2023-02-18T09:56:14;96211.66;;;14.36;68.24
25526;BME280;13424;48.424;11.258;2023-02-18T09:58:41;96222.69;;;14.57;68.09
25526;BME280;13424;48.424;11.258;2023-02-18T10:01:36;96221.09;;;14.56;67.89
25526;BME280;13424;48.424;11.258;2023-02-18T10:04:21;96215.94;;;14.76;67.10
25526;BME280;13424;48.424;11.258;2023-02-18T10:06:50;96220.28;;;14.55;67.95
25526;BME280;13424;48.424;11.258;2023-02-18T10:09:27;96214.66;;;14.78;67.45
25526;BME280;13424;48.424;11.258;2023-02-18T10:11:59;96214.75;;;14.89;66.93
25526;BME280;13424;48.424;11.258;2023-02-18T10:14:27;96194.16;;;14.72;67.22
25526;BME280;13424;48.424;11.258;2023-02-18T10:16:55;96187.03;;;14.61;67.20
25526;BME280;13424;48.424;11.258;2023-02-18T10:21:53;96172.34;;;14.91;66.03
25526;BME280;13424;48.424;11.258;2023-02-18T10:24:34;96186.53;;;15.13;65.52
25526;BME280;13424;48.424;11.258;2023-02-18T10:27:03;96168.34;;;15.20;65.67
25526;BME280;13424;48.424;11.258;2023-02-18T10:29:29;96156.72;;;15.47;64.80
25526;BME280;13424;48.424;11.258;2023-02-18T10:32:19;96156.41;;;15.70;65.20
25526;BME280;13424;48.424;11.258;2023-02-18T10:35:14;96144.25;;;15.62;65.49
25526;BME280;13424;48.424;11.258;2023-02-18T10:41:05;96113.88;;;15.30;63.83
25526;BME280;13424;48.424;11.258;2023-02-18T10:44:26;96132.41;;;15.31;64.08
25526;BME280;13424;48.424;11.258;2023-02-18T10:53:34;96126.84;;;15.38;65.71
25526;BME280;13424;48.424;11.258;2023-02-18T10:56:01;96114.94;;;15.61;64.98
25526;BME280;13424;48.424;11.258;2023-02-18T11:01:18;96136.28;;;15.41;65.31
25526;BME280;13424;48.424;11.258;2023-02-18T11:03:49;96138.66;;;15.69;64.70
25526;BME280;13424;48.424;11.258;2023-02-18T11:06:26;96142.97;;;15.70;64.98
25526;BME280;13424;48.424;11.258;2023-02-18T11:08:55;96141.06;;;15.66;65.03
25526;BME280;13424;48.424;11.258;2023-02-18T11:11:30;96144.81;;;15.32;65.88
25526;BME280;13424;48.424;11.258;2023-02-18T11:14:02;96135.06;;;15.58;64.93
25526;BME280;13424;48.424;11.258;2023-02-18T11:16:44;96130.81;;;15.30;65.75
25526;BME280;13424;48.424;11.258;2023-02-18T11:19:33;96149.25;;;15.54;65.59
25526;BME280;13424;48.424;11.258;2023-02-18T11:22:24;96131.06;;;15.29;65.39
25526;BME280;13424;48.424;11.258;2023-02-18T11:24:59;96134.13;;;15.43;65.85
25526;BME280;13424;48.424;11.258;2023-02-18T11:27:40;96137.59;;;15.70;64.70
25526;BME280;13424;48.424;11.258;2023-02-18T11:30:35;96134.72;;;15.50;65.27
25526;BME280;13424;48.424;11.258;2023-02-18T11:33:07;96128.44;;;15.39;65.46
25526;BME280;13424;48.424;11.258;2023-02-18T11:35:33;96123.88;;;15.40;66.27
25526;BME280;13424;48.424;11.258;2023-02-18T11:38:02;96114.19;;;15.33;65.53
25526;BME280;13424;48.424;11.258;2023-02-18T11:40:34;96093.03;;;15.10;64.77
25526;BME280;13424;48.424;11.258;2023-02-18T11:43:14;96101.25;;;14.98;65.28
25526;BME280;13424;48.424;11.258;2023-02-18T11:45:41;96113.72;;;15.10;65.07
25526;BME280;13424;48.424;11.258;2023-02-18T11:48:21;96101.59;;;15.07;65.03
25526;BME280;13424;48.424;11.258;2023-02-18T11:50:50;96113.25;;;15.55;65.07
25526;BME280;13424;48.424;11.258;2023-02-18T11:53:35;96102.06;;;15.31;64.94
25526;BME280;13424;48.424;11.258;2023-02-18T11:56:16;96107.00;;;15.12;64.70
25526;BME280;13424;48.424;11.258;2023-02-18T11:58:47;96104.41;;;15.22;65.11
25526;BME280;13424;48.424;11.258;2023-02-18T12:01:42;96082.19;;;15.00;66.09
25526;BME280;13424;48.424;11.258;2023-02-18T12:04:22;96080.56;;;14.99;64.94
25526;BME280;13424;48.424;11.258;2023-02-18T12:07:28;96072.22;;;15.27;65.80
25526;BME280;13424;48.424;11.258;2023-02-18T12:16:14;96059.84;;;15.31;65.35
25526;BME280;13424;48.424;11.258;2023-02-18T12:22:13;96045.22;;;15.12;65.80
25526;BME280;13424;48.424;11.258;2023-02-18T12:36:42;96045.88;;;15.29;64.96
25526;BME280;13424;48.424;11.258;2023-02-18T12:42:53;96021.56;;;15.09;64.47
25526;BME280;13424;48.424;11.258;2023-02-18T12:46:20;96032.50;;;15.40;64.77
25526;BME280;13424;48.424;11.258;2023-02-18T12:58:10;96030.41;;;15.47;63.81
25526;BME280;13424;48.424;11.258;2023-02-18T13:04:04;96032.97;;;15.31;64.12
25526;BME280;13424;48.424;11.258;2023-02-18T13:09:55;96006.47;;;15.03;64.50
25526;BME280;13424;48.424;11.258;2023-02-18T13:12:46;96029.72;;;14.87;65.51
25526;BME280;13424;48.424;11.258;2023-02-18T13:17:56;96029.16;;;15.17;64.16
25526;BME280;13424;48.424;11.258;2023-02-18T13:21:06;96018.63;;;15.16;64.30
25526;BME280;13424;48.424;11.258;2023-02-18T13:26:14;96000.09;;;15.14;64.18
25526;BME280;13424;48.424;11.258;2023-02-18T13:34:23;96003.19;;;15.38;64.48
25526;BME280;13424;48.424;11.258;2023-02-18T13:37:00;96013.38;;;15.31;64.17
25526;BME280;13424;48.424;11.258;2023-02-18T13:39:28;95989.44;;;15.29;64.10
25526;BME280;13424;48.424;11.258;2023-02-18T13:47:45;96017.28;;;15.13;65.57
25526;BME280;13424;48.424;11.258;2023-02-18T13:52:48;95990.28;;;15.35;65.21
25526;BME280;13424;48.424;11.258;2023-02-18T13:58:30;95994.81;;;15.29;65.83
25526;BME280;13424;48.424;11.258;2023-02-18T14:08:51;95996.31;;;15.10;66.07
25526;BME280;13424;48.424;11.258;2023-02-18T14:16:24;95997.94;;;15.11;66.22
25526;BME280;13424;48.424;11.258;2023-02-18T14:19:00;95986.81;;;14.97;65.75
25526;BME280;13424;48.424;11.258;2023-02-18T14:21:41;96004.22;;;15.32;65.42
25526;BME280;13424;48.424;11.258;2023-02-18T14:24:10;95985.19;;;15.33;64.93
25526;BME280;13424;48.424;11.258;2023-02-18T14:26:43;95983.75;;;14.84;64.82
25526;BME280;13424;48.424;11.258;2023-02-18T14:29:27;95988.38;;;15.30;64.75
25526;BME280;13424;48.424;11.258;2023-02-18T14:32:20;95987.81;;;15.66;63.17
25526;BME280;13424;48.424;11.258;2023-02-18T14:35:01;95985.91;;;15.66;63.11
25526;BME280;13424;48.424;11.258;2023-02-18T14:37:42;95986.56;;;15.94;63.48
25526;BME280;13424;48.424;11.258;2023-02-18T14:43:25;95999.59;;;15.22;63.75
25526;BME280;13424;48.424;11.258;2023-02-18T14:46:18;95994.94;;;15.50;63.53
25526;BME280;13424;48.424;11.258;2023-02-18T14:51:56;95994.00;;;14.87;64.58
25526;BME280;13424;48.424;11.258;2023-02-18T14:54:24;96006.47;;;15.03;64.45
25526;BME280;13424;48.424;11.258;2023-02-18T14:56:58;96001.00;;;14.93;64.59
25526;BME280;13424;48.424;11.258;2023-02-18T14:59:29;96010.19;;;14.97;64.82
25526;BME280;13424;48.424;11.258;2023-02-18T15:01:56;95994.00;;;14.87;64.17
25526;BME280;13424;48.424;11.258;2023-02-18T15:04:24;95990.63;;;14.69;64.77
25526;BME280;13424;48.424;11.258;2023-02-18T15:07:01;95997.41;;;15.14;63.90
25526;BME280;13424;48.424;11.258;2023-02-18T15:09:27;95998.84;;;15.32;64.02
25526;BME280;13424;48.424;11.258;2023-02-18T15:14:36;96007.50;;;14.97;65.56
25526;BME280;13424;48.424;11.258;2023-02-18T15:17:03;96001.22;;;15.23;64.60
25526;BME280;13424;48.424;11.258;2023-02-18T15:19:38;96008.75;;;15.21;65.15
25526;BME280;13424;48.424;11.258;2023-02-18T15:22:05;96002.50;;;15.11;66.04
25526;BME280;13424;48.424;11.258;2023-02-18T15:24:38;96006.91;;;14.90;66.17
25526;BME280;13424;48.424;11.258;2023-02-18T15:27:13;95995.91;;;14.59;65.94